createdAt,value
2018-04-08T00:01:28.898Z,72.10
2018-04-08T00:03:56.516Z,83.50
2018-04-08T00:06:25.342Z,73.20
2018-04-08T00:08:52.994Z,84.40
2018-04-08T00:11:21.370Z,72.90
2018-04-08T00:13:49.378Z,80.40
2018-04-08T00:16:18.559Z,73.70
2018-04-08T00:18:47.721Z,74.60
2018-04-08T00:21:15.756Z,74.10
2018-04-08T00:23:44.232Z,73.60
2018-04-08T00:26:12.604Z,74.80
2018-04-08T00:28:41.053Z,74.60
2018-04-08T00:31:08.669Z,85.20
2018-04-08T00:33:37.113Z,74.30
2018-04-08T00:36:05.523Z,74.40
2018-04-08T00:38:33.162Z,86.10
2018-04-08T00:41:01.553Z,75.50
2018-04-08T00:43:29.640Z,78.10
2018-04-08T00:45:57.278Z,86.60
2018-04-08T00:50:55.111Z,76.00
2018-04-08T00:53:22.773Z,87.90
2018-04-08T00:55:50.399Z,87.80
2018-04-08T00:58:18.847Z,76.40
2018-04-08T01:00:46.491Z,86.70
2018-04-08T01:05:43.186Z,84.30
2018-04-08T01:08:10.811Z,89.10
2018-04-08T01:10:38.902Z,81.10
2018-04-08T01:13:07.302Z,76.90
2018-04-08T01:15:35.366Z,77.10
2018-04-08T01:18:03.820Z,77.30
2018-04-08T01:20:31.847Z,78.80
2018-04-08T01:22:59.501Z,89.50
2018-04-08T01:25:27.522Z,77.60
2018-04-08T01:27:55.549Z,77.90
2018-04-08T01:30:23.259Z,90.00
2018-04-08T01:35:20.712Z,79.40
2018-04-08T01:37:49.152Z,78.00
2018-04-08T01:40:17.953Z,78.30
2018-04-08T01:42:46.745Z,78.40
2018-04-08T01:45:15.497Z,78.10
2018-04-08T01:47:43.921Z,77.90
2018-04-08T01:50:13.031Z,77.80
2018-04-08T01:52:41.138Z,79.40
2018-04-08T01:55:09.190Z,81.60
2018-04-08T01:57:36.839Z,90.20
2018-04-08T02:00:05.328Z,78.50
2018-04-08T02:02:33.777Z,78.60
2018-04-08T02:05:01.379Z,90.40
2018-04-08T02:07:29.789Z,79.40
2018-04-08T02:09:57.833Z,79.40
2018-04-08T02:14:54.445Z,90.50
2018-04-08T02:17:22.120Z,89.50
2018-04-08T02:19:49.779Z,90.80
2018-04-08T02:22:18.171Z,79.60
2018-04-08T02:24:45.836Z,85.30
2018-04-08T02:27:14.252Z,80.30
2018-04-08T02:29:42.287Z,80.80
2018-04-08T02:32:09.911Z,91.10
2018-04-08T02:34:37.954Z,83.80
2018-04-08T02:37:06.446Z,80.60
2018-04-08T02:39:34.847Z,80.30
2018-04-08T02:42:03.277Z,80.50
2018-04-08T02:44:31.383Z,80.30
2018-04-08T02:46:59.396Z,80.20
2018-04-08T02:49:27.051Z,91.00
2018-04-08T02:51:55.419Z,80.50
2018-04-08T02:54:23.488Z,86.40
2018-04-08T02:56:51.928Z,80.50
2018-04-08T02:59:20.671Z,80.60
2018-04-08T03:01:48.789Z,87.30
2018-04-08T03:04:17.195Z,81.50
2018-04-08T03:06:44.859Z,90.50
2018-04-08T03:09:12.542Z,91.30
2018-04-08T03:11:41.331Z,81.20
2018-04-08T03:14:09.805Z,81.20
2018-04-08T03:16:37.485Z,91.40
2018-04-08T03:19:05.880Z,81.50
2018-04-08T03:21:33.572Z,91.60
2018-04-08T03:24:01.992Z,81.60
2018-04-08T03:26:30.068Z,82.00
2018-04-08T03:28:57.705Z,91.90
2018-04-08T03:31:26.088Z,82.30
2018-04-08T03:33:54.538Z,82.40
2018-04-08T03:36:23.336Z,82.40
2018-04-08T03:38:52.135Z,81.90
2018-04-08T03:41:20.192Z,82.00
2018-04-08T03:43:49.074Z,81.90
2018-04-08T03:46:17.125Z,84.20
2018-04-08T03:48:44.783Z,92.10
2018-04-08T03:51:12.471Z,91.70
2018-04-08T03:53:40.535Z,82.10
2018-04-08T03:56:09.778Z,81.40
2018-04-08T03:58:37.789Z,81.40
2018-04-08T04:01:06.623Z,81.20
2018-04-08T04:03:35.134Z,81.30
2018-04-08T04:06:02.794Z,91.80
2018-04-08T04:08:31.955Z,81.50
2018-04-08T04:10:59.601Z,87.20
2018-04-08T04:13:28.006Z,82.80
2018-04-08T04:15:56.463Z,83.30
2018-04-08T04:18:37.007Z,82.20
2018-04-08T04:21:16.788Z,86.90
2018-04-08T04:23:56.344Z,90.50
2018-04-08T04:26:30.017Z,91.90
2018-04-08T04:28:58.413Z,82.80
2018-04-08T04:31:26.908Z,82.20
2018-04-08T04:33:54.587Z,92.10
2018-04-08T04:36:39.249Z,82.60
2018-04-08T04:39:06.935Z,92.40
2018-04-08T04:41:34.629Z,92.50
2018-04-08T04:44:03.016Z,83.20
2018-04-08T04:46:30.646Z,92.40
2018-04-08T04:48:58.720Z,83.80
2018-04-08T04:51:27.840Z,83.80
2018-04-08T04:53:56.675Z,83.60
2018-04-08T04:56:25.152Z,84.00
2018-04-08T04:58:53.174Z,84.60
2018-04-08T05:01:21.647Z,85.30
2018-04-08T05:03:50.134Z,85.30
2018-04-08T05:06:18.558Z,84.70
2018-04-08T05:08:47.017Z,84.00
2018-04-08T05:11:15.067Z,86.30
2018-04-08T05:13:43.873Z,83.20
2018-04-08T05:16:11.536Z,92.50
2018-04-08T05:18:39.563Z,83.50
2018-04-08T05:21:07.227Z,92.60
2018-04-08T05:23:35.256Z,84.20
2018-04-08T05:26:02.903Z,92.50
2018-04-08T05:28:31.001Z,83.00
2018-04-08T05:30:59.371Z,82.60
2018-04-08T05:33:27.500Z,91.70
2018-04-08T05:35:56.675Z,82.40
2018-04-08T05:38:25.796Z,82.30
2018-04-08T05:40:54.180Z,81.70
2018-04-08T05:43:22.228Z,83.50
2018-04-08T05:45:49.938Z,91.40
2018-04-08T05:48:17.549Z,91.10
2018-04-08T05:50:45.187Z,91.20
2018-04-08T05:53:13.199Z,86.80
2018-04-08T05:55:41.576Z,81.30
2018-04-08T05:58:09.659Z,83.10
2018-04-08T06:00:37.280Z,91.90
2018-04-08T06:03:05.375Z,83.80
2018-04-08T06:05:32.978Z,90.90
2018-04-08T06:08:00.636Z,85.70
2018-04-08T06:10:28.290Z,87.80
2018-04-08T06:12:55.897Z,91.10
2018-04-08T06:15:23.505Z,90.20
2018-04-08T06:17:51.171Z,89.50
2018-04-08T06:20:18.812Z,87.60
2018-04-08T06:22:46.832Z,74.90
2018-04-08T06:25:14.548Z,86.80
2018-04-08T06:30:11.243Z,85.10
2018-04-08T06:32:38.845Z,83.40
2018-04-08T06:35:06.566Z,83.50
2018-04-08T06:37:34.276Z,82.80
2018-04-08T06:40:02.718Z,74.00
2018-04-08T06:42:30.384Z,83.40
2018-04-08T06:44:58.049Z,83.70
2018-04-08T06:47:25.746Z,82.70
2018-04-08T06:49:53.382Z,81.60
2018-04-08T06:52:21.067Z,80.80
2018-04-08T06:54:48.679Z,79.60
2018-04-08T06:57:16.405Z,79.40
2018-04-08T06:59:44.867Z,70.00
2018-04-08T07:02:12.484Z,79.40
2018-04-08T07:04:40.194Z,76.80
2018-04-08T07:07:07.881Z,74.60
2018-04-08T07:09:35.962Z,65.30
2018-04-08T07:12:04.434Z,64.80
2018-04-08T07:14:32.076Z,72.40
2018-04-08T07:16:59.686Z,72.40
2018-04-08T07:19:28.143Z,62.10
2018-04-08T07:21:56.236Z,62.70
2018-04-08T07:24:23.849Z,72.70
2018-04-08T07:26:51.491Z,72.00
2018-04-08T07:29:19.212Z,70.00
2018-04-08T07:31:46.902Z,70.00
2018-04-08T07:34:14.539Z,68.50
2018-04-08T07:36:42.194Z,67.80
2018-04-08T07:39:09.841Z,69.20
2018-04-08T07:41:38.262Z,59.40
2018-04-08T07:44:06.653Z,59.10
2018-04-08T07:46:34.272Z,65.90
2018-04-08T07:49:02.764Z,59.10
2018-04-08T07:51:30.429Z,64.30
2018-04-08T07:53:58.072Z,64.00
2018-04-08T07:56:25.731Z,58.00
2018-04-08T07:58:53.862Z,51.30
2018-04-08T08:01:21.497Z,55.90
2018-04-08T08:03:49.164Z,55.30
2018-04-08T08:06:16.856Z,54.70
2018-04-08T08:08:44.462Z,52.40
2018-04-08T08:11:12.157Z,53.00
2018-04-08T08:13:40.971Z,46.50
2018-04-08T08:16:08.629Z,50.90
2018-04-08T08:18:36.665Z,45.80
2018-04-08T08:21:07.030Z,46.60
2018-04-08T08:23:35.326Z,52.40
2018-04-08T08:26:03.353Z,47.30
2018-04-08T08:28:31.389Z,46.10
2018-04-08T08:30:58.987Z,50.90
2018-04-08T08:33:26.675Z,50.90
2018-04-08T08:35:55.080Z,44.60
2018-04-08T08:38:23.282Z,43.30
2018-04-08T08:40:51.669Z,40.20
2018-04-08T08:43:19.337Z,43.90
2018-04-08T08:45:47.858Z,42.40
2018-04-08T08:48:15.895Z,41.60
2018-04-08T08:50:43.538Z,45.50
2018-04-08T08:53:11.512Z,47.00
2018-04-08T08:55:39.132Z,45.40
2018-04-08T08:58:07.535Z,41.30
2018-04-08T09:00:35.646Z,44.70
2018-04-08T09:03:03.703Z,39.90
2018-04-08T09:05:31.753Z,42.40
2018-04-08T09:07:59.841Z,35.00
2018-04-08T09:10:27.550Z,39.30
2018-04-08T09:12:55.221Z,39.40
2018-04-08T09:15:23.631Z,36.60
2018-04-08T09:17:51.358Z,41.30
2018-04-08T09:20:25.292Z,35.30
2018-04-08T09:22:59.284Z,34.10
2018-04-08T09:25:27.773Z,36.80
2018-04-08T09:27:56.584Z,36.80
2018-04-08T09:30:24.198Z,41.20
2018-04-08T09:32:51.802Z,41.10
2018-04-08T09:35:19.506Z,39.40
2018-04-08T09:37:47.533Z,35.30
2018-04-08T09:40:15.139Z,38.80
2018-04-08T09:42:43.116Z,37.60
2018-04-08T09:45:10.736Z,39.40
2018-04-08T09:47:38.340Z,38.60
2018-04-08T09:50:07.077Z,39.60
2018-04-08T09:52:34.717Z,39.90
2018-04-08T09:55:03.952Z,33.20
2018-04-08T09:57:34.572Z,36.80
2018-04-08T10:00:02.272Z,38.50
2018-04-08T10:02:37.563Z,36.50
2018-04-08T10:05:05.209Z,37.50
2018-04-08T10:07:33.636Z,33.00
2018-04-08T10:10:01.336Z,34.50
2018-04-08T10:12:29.004Z,34.80
2018-04-08T10:14:57.788Z,30.50
2018-04-08T10:17:26.561Z,30.70
2018-04-08T10:19:54.171Z,36.20
2018-04-08T10:22:21.813Z,34.80
2018-04-08T10:24:50.320Z,32.30
2018-04-08T10:27:18.727Z,30.30
2018-04-08T10:29:46.407Z,31.10
2018-04-08T10:32:14.037Z,32.00
2018-04-08T10:34:41.658Z,33.10
2018-04-08T10:37:10.108Z,28.80
2018-04-08T10:39:37.768Z,32.90
2018-04-08T10:42:05.386Z,30.50
2018-04-08T10:44:33.185Z,30.10
2018-04-08T10:50:01.543Z,30.50
2018-04-08T10:52:29.279Z,30.60
2018-04-08T10:54:57.728Z,27.40
2018-04-08T10:57:25.343Z,30.10
2018-04-08T10:59:52.975Z,29.70
2018-04-08T11:02:20.616Z,31.40
2018-04-08T11:04:48.697Z,26.50
2018-04-08T11:07:16.375Z,28.60
2018-04-08T11:09:44.435Z,26.00
2018-04-08T11:12:12.100Z,29.30
2018-04-08T11:14:39.841Z,29.60
2018-04-08T11:17:08.259Z,26.50
2018-04-08T11:19:36.679Z,27.00
2018-04-08T11:22:05.484Z,26.90
2018-04-08T11:24:33.149Z,28.40
2018-04-08T11:27:00.806Z,27.70
2018-04-08T11:29:29.223Z,25.20
2018-04-08T11:31:57.285Z,25.60
2018-04-08T11:34:26.405Z,26.50
2018-04-08T11:36:54.468Z,25.30
2018-04-08T11:39:22.890Z,26.00
2018-04-08T11:41:50.569Z,29.70
2018-04-08T11:44:18.248Z,27.90
2018-04-08T11:46:45.876Z,28.20
2018-04-08T11:49:13.546Z,27.90
2018-04-08T11:51:41.218Z,28.70
2018-04-08T11:54:08.942Z,29.80
2018-04-08T11:56:36.564Z,28.80
2018-04-08T11:59:04.643Z,26.10
2018-04-08T12:01:32.363Z,27.70
2018-04-08T12:04:00.475Z,27.00
2018-04-08T12:06:28.121Z,28.10
2018-04-08T12:08:55.788Z,30.80
2018-04-08T12:11:23.504Z,31.50
2018-04-08T12:13:51.210Z,29.80
2018-04-08T12:16:18.814Z,29.80
2018-04-08T12:18:46.516Z,29.50
2018-04-08T12:21:14.195Z,28.00
2018-04-08T12:23:42.621Z,27.10
2018-04-08T12:26:10.813Z,29.40
2018-04-08T12:28:39.644Z,28.40
2018-04-08T12:31:07.327Z,29.90
2018-04-08T12:33:35.065Z,29.30
2018-04-08T12:36:02.731Z,30.30
2018-04-08T12:38:31.120Z,26.50
2018-04-08T12:40:58.759Z,28.60
2018-04-08T12:43:26.436Z,29.50
2018-04-08T12:45:54.112Z,30.00
2018-04-08T12:48:21.749Z,30.00
2018-04-08T12:50:49.436Z,28.80
2018-04-08T12:53:17.112Z,30.20
2018-04-08T12:55:44.759Z,28.30
2018-04-08T12:58:12.810Z,27.40
2018-04-08T13:00:40.483Z,29.20
2018-04-08T13:03:08.106Z,30.00
2018-04-08T13:05:35.759Z,27.60
2018-04-08T13:08:03.399Z,29.60
2018-04-08T13:10:32.272Z,29.40
2018-04-08T13:13:00.345Z,29.50
2018-04-08T13:15:28.797Z,27.80
2018-04-08T13:17:56.545Z,28.90
2018-04-08T13:20:24.227Z,28.00
2018-04-08T13:22:51.888Z,29.80
2018-04-08T13:25:19.526Z,29.30
2018-04-08T13:27:47.282Z,29.20
2018-04-08T13:30:15.008Z,28.80
2018-04-08T13:32:43.449Z,26.80
2018-04-08T13:35:11.103Z,30.50
2018-04-08T13:40:07.777Z,30.10
2018-04-08T13:42:35.447Z,28.20
2018-04-08T13:45:03.098Z,28.70
2018-04-08T13:47:30.731Z,27.50
2018-04-08T13:49:58.763Z,25.50
2018-04-08T13:52:26.922Z,25.30
2018-04-08T13:54:54.604Z,28.00
2018-04-08T13:57:23.023Z,27.00
2018-04-08T13:59:51.449Z,26.60
2018-04-08T14:02:20.291Z,27.30
2018-04-08T14:04:47.952Z,27.20
2018-04-08T14:07:15.591Z,28.00
2018-04-08T14:09:43.683Z,28.30
2018-04-08T14:12:12.068Z,26.70
2018-04-08T14:14:39.680Z,25.70
2018-04-08T14:17:08.087Z,25.20
2018-04-08T14:19:35.695Z,25.70
2018-04-08T14:22:03.365Z,26.30
2018-04-08T14:24:32.578Z,24.70
2018-04-08T14:27:00.200Z,26.80
2018-04-08T14:29:28.279Z,25.40
2018-04-08T14:31:56.025Z,27.10
2018-04-08T14:34:23.692Z,26.20
2018-04-08T14:36:51.398Z,27.70
2018-04-08T14:39:19.859Z,26.70
2018-04-08T14:41:47.501Z,26.50
2018-04-08T14:44:15.154Z,27.60
2018-04-08T14:46:43.559Z,26.80
2018-04-08T14:49:11.657Z,27.60
2018-04-08T14:51:40.060Z,29.60
2018-04-08T14:54:07.708Z,31.60
2018-04-08T14:56:35.377Z,32.80
2018-04-08T14:59:03.932Z,33.90
2018-04-08T15:01:31.598Z,34.70
2018-04-08T15:03:59.258Z,34.70
2018-04-08T15:06:27.364Z,32.60
2018-04-08T15:08:55.446Z,32.40
2018-04-08T15:11:23.172Z,33.70
2018-04-08T15:13:52.353Z,31.60
2018-04-08T15:16:20.115Z,33.00
2018-04-08T15:18:47.783Z,30.70
2018-04-08T15:21:15.463Z,29.60
2018-04-08T15:23:43.925Z,27.30
2018-04-08T15:26:11.600Z,28.40
2018-04-08T15:28:40.780Z,26.80
2018-04-08T15:31:08.424Z,25.60
2018-04-08T15:33:36.125Z,25.10
2018-04-08T15:36:04.632Z,24.30
2018-04-08T15:38:32.311Z,24.90
2018-04-08T15:40:59.999Z,27.10
2018-04-08T15:43:28.058Z,27.70
2018-04-08T15:45:55.739Z,29.70
2018-04-08T15:48:23.534Z,31.30
2018-04-08T15:50:51.915Z,32.40
2018-04-08T15:53:20.334Z,33.20
2018-04-08T15:55:48.050Z,35.10
2018-04-08T15:58:16.855Z,34.40
2018-04-08T16:00:44.524Z,36.70
2018-04-08T16:03:12.170Z,37.40
2018-04-08T16:05:40.600Z,35.10
2018-04-08T16:08:08.274Z,37.40
2018-04-08T16:10:36.019Z,34.90
2018-04-08T16:13:03.731Z,35.20
2018-04-08T16:15:31.738Z,34.40
2018-04-08T16:17:59.736Z,36.40
2018-04-08T16:20:27.465Z,37.90
2018-04-08T16:22:55.087Z,38.60
2018-04-08T16:25:23.532Z,38.00
2018-04-08T16:27:51.197Z,42.40
2018-04-08T16:30:19.639Z,40.90
2018-04-08T16:32:47.242Z,45.10
2018-04-08T16:35:15.787Z,42.20
2018-04-08T16:37:43.796Z,46.30
2018-04-08T16:40:12.954Z,43.50
2018-04-08T16:42:40.582Z,47.60
2018-04-08T16:45:09.045Z,45.00
2018-04-08T16:47:36.713Z,48.90
2018-04-08T16:50:04.438Z,48.40
2018-04-08T16:52:32.100Z,49.10
2018-04-08T16:54:59.726Z,48.50
2018-04-08T16:57:27.339Z,47.80
2018-04-08T16:59:55.823Z,45.50
2018-04-08T17:02:23.522Z,50.10
2018-04-08T17:07:20.301Z,51.60
2018-04-08T17:09:48.048Z,52.10
2018-04-08T17:12:16.054Z,47.50
2018-04-08T17:14:43.669Z,52.50
2018-04-08T17:17:12.122Z,47.80
2018-04-08T17:19:40.559Z,47.80
2018-04-08T17:22:08.566Z,47.70
2018-04-08T17:24:36.333Z,53.10
2018-04-08T17:27:05.076Z,53.30
2018-04-08T17:29:32.766Z,53.60
2018-04-08T17:32:00.442Z,54.00
2018-04-08T17:34:28.142Z,55.50
2018-04-08T17:36:56.588Z,50.90
2018-04-08T17:39:24.268Z,56.60
2018-04-08T17:41:51.948Z,57.40
2018-04-08T17:44:20.445Z,52.40
2018-04-08T17:46:48.859Z,52.90
2018-04-08T17:49:16.517Z,57.30
2018-04-08T17:51:44.952Z,53.00
2018-04-08T17:54:13.363Z,53.00
2018-04-08T17:56:40.992Z,56.90
2018-04-08T17:59:09.019Z,52.90
2018-04-08T18:01:36.666Z,58.70
2018-04-08T18:04:05.421Z,53.60
2018-04-08T18:06:33.483Z,54.30
2018-04-08T18:11:32.399Z,53.60
2018-04-08T18:14:00.735Z,60.00
2018-04-08T18:16:31.291Z,54.40
2018-04-08T18:18:59.220Z,60.50
2018-04-08T18:21:26.926Z,60.80
2018-04-08T18:23:54.975Z,55.40
2018-04-08T18:26:22.639Z,61.30
2018-04-08T18:28:50.713Z,59.90
2018-04-08T18:31:18.720Z,56.20
2018-04-08T18:33:47.375Z,57.20
2018-04-08T18:36:15.898Z,57.00
2018-04-08T18:38:45.118Z,57.10
2018-04-08T18:41:13.218Z,57.40
2018-04-08T18:48:39.904Z,65.50
2018-04-08T18:51:07.580Z,65.50
2018-04-08T18:53:35.996Z,59.20
2018-04-08T18:56:03.647Z,66.10
2018-04-08T18:58:31.292Z,66.20
2018-04-08T19:00:59.743Z,59.60
2018-04-08T19:03:27.407Z,67.40
2018-04-08T19:05:55.916Z,60.50
2018-04-08T19:08:24.402Z,61.20
2018-04-08T19:10:52.438Z,61.80
2018-04-08T19:13:20.096Z,70.00
2018-04-08T19:18:16.779Z,70.70
2018-04-08T19:20:45.158Z,64.20
2018-04-08T19:25:41.831Z,72.70
2018-04-08T19:28:09.575Z,73.10
2018-04-08T19:30:37.964Z,65.30
2018-04-08T19:33:05.985Z,65.00
2018-04-08T19:35:33.619Z,74.30
2018-04-08T19:38:01.246Z,74.80
2018-04-08T19:40:29.691Z,66.00
2018-04-08T19:42:57.728Z,68.10
2018-04-08T19:45:25.436Z,74.00
2018-04-08T19:47:53.559Z,68.30
2018-04-08T19:50:21.596Z,66.20
2018-04-08T19:52:49.251Z,74.80
2018-04-08T19:55:16.946Z,72.60
2018-04-08T19:57:46.535Z,66.30
2018-04-08T20:00:14.208Z,75.00
2018-04-08T20:02:42.294Z,66.80
2018-04-08T20:05:09.946Z,75.20
2018-04-08T20:07:38.323Z,67.60
2018-04-08T20:10:06.775Z,67.30
2018-04-08T20:12:35.170Z,66.50
2018-04-08T20:15:03.234Z,68.10
2018-04-08T20:17:30.897Z,74.70
2018-04-08T20:19:59.333Z,66.40
2018-04-08T20:22:28.510Z,66.10
2018-04-08T20:24:56.542Z,65.90
2018-04-08T20:27:25.006Z,66.00
2018-04-08T20:29:52.645Z,71.30
2018-04-08T20:32:21.013Z,66.30
2018-04-08T20:34:50.197Z,66.90
2018-04-08T20:37:23.599Z,66.90
2018-04-08T20:39:51.290Z,76.10
2018-04-08T20:42:20.468Z,67.10
2018-04-08T20:44:48.844Z,67.00
2018-04-08T20:47:17.744Z,68.00
2018-04-08T20:49:46.515Z,67.80
2018-04-08T20:52:14.179Z,76.00
2018-04-08T20:54:42.270Z,67.20
2018-04-08T20:57:09.934Z,76.10
2018-04-08T20:59:37.623Z,76.10
2018-04-08T21:04:34.291Z,76.90
2018-04-08T21:07:01.942Z,77.10
2018-04-08T21:09:30.342Z,69.10
2018-04-08T21:11:58.375Z,69.40
2018-04-08T21:14:27.163Z,69.30
2018-04-08T21:16:54.863Z,78.20
2018-04-08T21:19:23.302Z,70.70
2018-04-08T21:21:51.217Z,78.80
2018-04-08T21:24:19.655Z,69.50
2018-04-08T21:26:47.375Z,78.60
2018-04-08T21:29:15.079Z,78.40
2018-04-08T21:31:43.538Z,69.70
2018-04-08T21:34:11.624Z,70.10
2018-04-08T21:36:41.099Z,70.30
2018-04-08T21:39:08.773Z,79.30
2018-04-08T21:41:36.447Z,75.70
2018-04-08T21:44:04.219Z,78.80
2018-04-08T21:46:32.613Z,70.00
2018-04-08T21:49:00.258Z,79.10
2018-04-08T21:51:28.395Z,70.10
2018-04-08T21:53:56.087Z,79.10
2018-04-08T21:56:23.801Z,79.70
2018-04-08T21:58:52.935Z,70.30
2018-04-08T22:01:21.078Z,79.90
2018-04-08T22:06:17.819Z,80.70
2018-04-08T22:08:45.521Z,77.40
2018-04-08T22:11:13.580Z,71.40
2018-04-08T22:13:41.308Z,80.80
2018-04-08T22:16:09.705Z,71.70
2018-04-08T22:18:38.096Z,72.70
2018-04-08T22:21:06.876Z,71.90
2018-04-08T22:23:35.296Z,72.90
2018-04-08T22:26:03.722Z,72.00
2018-04-08T22:28:31.336Z,81.60
2018-04-08T22:30:59.028Z,81.80
2018-04-08T22:33:26.699Z,81.50
2018-04-08T22:35:55.851Z,73.00
2018-04-08T22:38:23.905Z,72.60
2018-04-08T22:40:52.000Z,72.70
2018-04-08T22:43:20.416Z,72.50
2018-04-08T22:45:48.803Z,72.60
2018-04-08T22:48:16.514Z,81.80
2018-04-08T22:50:44.194Z,78.00
2018-04-08T22:53:11.895Z,82.40
2018-04-08T22:55:41.014Z,72.80
2018-04-08T22:58:10.188Z,72.80
2018-04-08T23:00:38.578Z,73.20
2018-04-08T23:05:36.006Z,73.70
2018-04-08T23:08:04.798Z,74.30
2018-04-08T23:10:32.561Z,83.40
2018-04-08T23:15:30.380Z,74.10
2018-04-08T23:17:58.763Z,75.30
2018-04-08T23:20:27.192Z,75.00
2018-04-08T23:22:54.867Z,85.10
2018-04-08T23:25:22.515Z,79.70
2018-04-08T23:27:50.558Z,76.20
2018-04-08T23:30:18.240Z,85.80
2018-04-08T23:32:46.275Z,80.10
2018-04-08T23:35:14.671Z,77.10
2018-04-08T23:37:43.028Z,77.20
2018-04-08T23:40:11.445Z,77.00
2018-04-08T23:42:39.475Z,77.20
2018-04-08T23:45:07.893Z,78.00
2018-04-08T23:47:35.560Z,87.30
2018-04-08T23:50:03.340Z,83.60
2018-04-08T23:52:32.118Z,79.20
2018-04-08T23:54:59.783Z,86.30
2018-04-08T23:57:27.394Z,88.50
2018-04-08T23:59:56.231Z,78.60
